createdAt,value
2018-03-04T00:01:02.920Z,85.40
2018-03-04T00:03:31.269Z,85.50
2018-03-04T00:05:59.565Z,85.70
2018-03-04T00:08:27.893Z,85.90
2018-03-04T00:10:56.196Z,86.10
2018-03-04T00:13:24.488Z,86.20
2018-03-04T00:15:52.808Z,86.30
2018-03-04T00:18:21.104Z,86.60
2018-03-04T00:20:49.430Z,86.70
2018-03-04T00:23:17.724Z,86.70
2018-03-04T00:25:45.286Z,86.70
2018-03-04T00:28:13.577Z,87.00
2018-03-04T00:30:41.892Z,87.10
2018-03-04T00:33:10.188Z,87.10
2018-03-04T00:35:38.512Z,87.20
2018-03-04T00:38:06.817Z,87.40
2018-03-04T00:40:35.145Z,87.60
2018-03-04T00:43:03.445Z,87.80
2018-03-04T00:45:31.778Z,88.10
2018-03-04T00:48:00.075Z,88.70
2018-03-04T00:50:28.397Z,88.90
2018-03-04T00:52:56.689Z,89.00
2018-03-04T00:55:25.006Z,89.40
2018-03-04T00:57:53.299Z,89.40
2018-03-04T01:00:21.633Z,89.50
2018-03-04T01:02:49.929Z,89.50
2018-03-04T01:05:18.262Z,89.70
2018-03-04T01:07:46.556Z,89.90
2018-03-04T01:10:14.876Z,89.90
2018-03-04T01:12:43.174Z,89.70
2018-03-04T01:15:11.502Z,89.90
2018-03-04T01:17:39.801Z,90.00
2018-03-04T01:20:08.125Z,90.10
2018-03-04T01:22:36.425Z,90.00
2018-03-04T01:25:04.778Z,90.00
2018-03-04T01:27:33.068Z,90.00
2018-03-04T01:30:01.388Z,90.00
2018-03-04T01:32:29.676Z,90.00
2018-03-04T01:34:58.004Z,90.00
2018-03-04T01:37:26.307Z,90.00
2018-03-04T01:39:54.625Z,90.00
2018-03-04T01:42:22.157Z,90.00
2018-03-04T01:44:50.472Z,89.90
2018-03-04T01:47:18.760Z,89.90
2018-03-04T01:49:47.080Z,89.80
2018-03-04T01:52:15.388Z,89.80
2018-03-04T01:54:43.710Z,89.60
2018-03-04T01:57:12.000Z,89.60
2018-03-04T01:59:40.318Z,89.50
2018-03-04T02:02:08.612Z,89.60
2018-03-04T02:04:36.946Z,89.70
2018-03-04T02:07:05.244Z,89.90
2018-03-04T02:09:33.540Z,90.00
2018-03-04T02:12:01.862Z,90.00
2018-03-04T02:14:30.172Z,89.90
2018-03-04T02:16:58.502Z,90.00
2018-03-04T02:19:26.788Z,90.00
2018-03-04T02:21:55.108Z,90.10
2018-03-04T02:24:23.404Z,90.20
2018-03-04T02:26:51.736Z,90.30
2018-03-04T02:29:20.026Z,90.30
2018-03-04T02:31:48.352Z,90.30
2018-03-04T02:34:16.651Z,90.40
2018-03-04T02:36:44.977Z,90.40
2018-03-04T02:39:13.264Z,90.50
2018-03-04T02:41:41.589Z,90.50
2018-03-04T02:44:09.893Z,90.50
2018-03-04T02:46:38.209Z,90.50
2018-03-04T02:49:06.512Z,90.50
2018-03-04T02:51:34.841Z,90.50
2018-03-04T02:54:03.143Z,90.40
2018-03-04T02:56:31.515Z,90.40
2018-03-04T02:58:59.804Z,90.40
2018-03-04T03:01:28.127Z,90.50
2018-03-04T03:03:56.426Z,90.40
2018-03-04T03:06:24.752Z,90.40
2018-03-04T03:08:53.055Z,90.50
2018-03-04T03:11:21.377Z,90.50
2018-03-04T03:13:49.676Z,90.50
2018-03-04T03:16:18.001Z,90.60
2018-03-04T03:18:46.312Z,90.60
2018-03-04T03:21:14.635Z,90.60
2018-03-04T03:23:42.923Z,90.70
2018-03-04T03:26:11.244Z,90.90
2018-03-04T03:28:39.536Z,91.10
2018-03-04T03:31:07.884Z,91.30
2018-03-04T03:33:36.180Z,91.40
2018-03-04T03:36:04.502Z,91.50
2018-03-04T03:38:32.807Z,91.50
2018-03-04T03:41:01.152Z,91.40
2018-03-04T03:43:29.443Z,91.20
2018-03-04T03:45:57.756Z,91.20
2018-03-04T03:48:26.048Z,91.30
2018-03-04T03:50:54.364Z,91.30
2018-03-04T03:53:22.656Z,91.30
2018-03-04T03:55:50.983Z,91.30
2018-03-04T03:58:19.282Z,91.40
2018-03-04T04:00:47.573Z,91.30
2018-03-04T04:03:15.888Z,91.30
2018-03-04T04:05:44.184Z,91.30
2018-03-04T04:08:12.504Z,91.30
2018-03-04T04:10:40.807Z,91.20
2018-03-04T04:13:09.128Z,91.20
2018-03-04T04:15:37.428Z,91.10
2018-03-04T04:18:05.748Z,91.10
2018-03-04T04:20:34.038Z,90.90
2018-03-04T04:23:02.356Z,90.90
2018-03-04T04:25:30.652Z,90.90
2018-03-04T04:27:59.071Z,90.80
2018-03-04T04:30:27.361Z,90.70
2018-03-04T04:32:55.676Z,90.70
2018-03-04T04:35:23.968Z,90.70
2018-03-04T04:37:52.283Z,90.70
2018-03-04T04:40:20.576Z,90.60
2018-03-04T04:42:48.901Z,90.60
2018-03-04T04:45:17.196Z,90.70
2018-03-04T04:47:45.516Z,90.60
2018-03-04T04:50:13.820Z,90.70
2018-03-04T04:52:42.140Z,90.70
2018-03-04T04:55:10.436Z,90.70
2018-03-04T04:57:38.765Z,90.90
2018-03-04T05:00:07.061Z,90.60
2018-03-04T05:02:35.382Z,90.70
2018-03-04T05:05:03.671Z,90.80
2018-03-04T05:07:32.028Z,90.90
2018-03-04T05:10:00.327Z,90.90
2018-03-04T05:12:28.664Z,90.90
2018-03-04T05:14:56.953Z,91.00
2018-03-04T05:17:25.255Z,91.00
2018-03-04T05:19:53.579Z,91.00
2018-03-04T05:22:21.870Z,91.10
2018-03-04T05:24:50.188Z,91.20
2018-03-04T05:27:18.492Z,91.20
2018-03-04T05:29:46.816Z,91.20
2018-03-04T05:32:15.109Z,91.10
2018-03-04T05:34:43.433Z,91.10
2018-03-04T05:37:11.729Z,91.10
2018-03-04T05:39:40.050Z,91.10
2018-03-04T05:42:08.350Z,91.10
2018-03-04T05:44:36.693Z,91.30
2018-03-04T05:47:04.988Z,91.10
2018-03-04T05:49:33.289Z,91.10
2018-03-04T05:52:01.608Z,91.20
2018-03-04T05:54:29.904Z,91.30
2018-03-04T05:56:58.225Z,91.30
2018-03-04T05:59:26.517Z,91.40
2018-03-04T06:01:54.832Z,91.40
2018-03-04T06:04:23.129Z,91.60
2018-03-04T06:06:51.452Z,91.60
2018-03-04T06:09:19.751Z,91.60
2018-03-04T06:11:47.306Z,91.60
2018-03-04T06:14:15.601Z,91.80
2018-03-04T06:16:43.930Z,91.90
2018-03-04T06:19:12.235Z,91.90
2018-03-04T06:21:40.528Z,92.00
2018-03-04T06:24:08.849Z,92.00
2018-03-04T06:26:37.156Z,92.00
2018-03-04T06:29:05.481Z,92.00
2018-03-04T06:31:33.017Z,92.00
2018-03-04T06:34:01.340Z,92.20
2018-03-04T06:36:29.637Z,92.60
2018-03-04T06:38:57.955Z,92.10
2018-03-04T06:41:26.249Z,92.00
2018-03-04T06:43:54.568Z,92.00
2018-03-04T06:46:22.902Z,91.90
2018-03-04T06:48:51.200Z,91.90
2018-03-04T06:51:19.500Z,91.80
2018-03-04T06:53:47.835Z,91.70
2018-03-04T06:56:16.174Z,91.70
2018-03-04T06:58:44.448Z,91.70
2018-03-04T07:01:12.768Z,91.60
2018-03-04T07:03:41.057Z,91.50
2018-03-04T07:06:09.385Z,91.50
2018-03-04T07:08:36.920Z,91.50
2018-03-04T07:11:05.256Z,91.30
2018-03-04T07:13:32.776Z,91.80
2018-03-04T07:16:01.095Z,91.10
2018-03-04T07:18:29.396Z,90.90
2018-03-04T07:20:57.720Z,90.70
2018-03-04T07:23:26.035Z,90.70
2018-03-04T07:25:54.349Z,90.70
2018-03-04T07:28:22.643Z,90.60
2018-03-04T07:30:50.955Z,90.80
2018-03-04T07:33:19.260Z,90.50
2018-03-04T07:35:47.596Z,90.50
2018-03-04T07:38:15.888Z,90.40
2018-03-04T07:40:44.196Z,90.20
2018-03-04T07:43:12.516Z,89.80
2018-03-04T07:45:40.800Z,90.00
2018-03-04T07:48:09.119Z,89.60
2018-03-04T07:50:37.425Z,89.50
2018-03-04T07:53:05.736Z,89.20
2018-03-04T07:55:34.037Z,88.00
2018-03-04T07:58:02.357Z,86.50
2018-03-04T08:00:30.657Z,85.20
2018-03-04T08:02:58.980Z,84.30
2018-03-04T08:05:26.520Z,84.30
2018-03-04T08:07:54.842Z,83.70
2018-03-04T08:10:23.132Z,83.30
2018-03-04T08:12:51.457Z,82.70
2018-03-04T08:15:19.756Z,82.30
2018-03-04T08:17:47.298Z,82.30
2018-03-04T08:20:15.624Z,81.60
2018-03-04T08:22:43.916Z,81.20
2018-03-04T08:25:24.085Z,80.60
2018-03-04T08:28:04.364Z,80.30
2018-03-04T08:30:32.692Z,79.90
2018-03-04T08:33:00.993Z,79.00
2018-03-04T08:35:29.323Z,78.20
2018-03-04T08:37:56.856Z,78.20
2018-03-04T08:40:25.181Z,77.00
2018-03-04T08:42:53.468Z,76.50
2018-03-04T08:45:21.788Z,75.90
2018-03-04T08:47:50.089Z,75.00
2018-03-04T08:50:18.416Z,74.40
2018-03-04T08:52:46.717Z,73.80
2018-03-04T08:55:15.047Z,73.30
2018-03-04T08:57:43.345Z,72.80
2018-03-04T09:00:11.668Z,72.30
2018-03-04T09:02:39.964Z,71.50
2018-03-04T09:05:08.284Z,70.70
2018-03-04T09:07:36.587Z,70.10
2018-03-04T09:10:04.930Z,70.00
2018-03-04T09:12:33.242Z,69.40
2018-03-04T09:15:02.256Z,69.00
2018-03-04T09:17:30.556Z,68.70
2018-03-04T09:19:58.853Z,68.80
2018-03-04T09:22:27.189Z,68.90
2018-03-04T09:24:54.737Z,68.90
2018-03-04T09:27:23.060Z,68.20
2018-03-04T09:29:51.364Z,67.90
2018-03-04T09:32:19.679Z,67.70
2018-03-04T09:34:47.993Z,66.70
2018-03-04T09:37:16.312Z,66.20
2018-03-04T09:39:44.604Z,65.20
2018-03-04T09:42:12.916Z,64.40
2018-03-04T09:44:41.208Z,64.90
2018-03-04T09:47:09.521Z,64.30
2018-03-04T09:49:37.807Z,64.10
2018-03-04T09:52:05.357Z,64.10
2018-03-04T09:54:33.650Z,64.20
2018-03-04T09:57:01.978Z,64.00
2018-03-04T09:59:30.264Z,64.60
2018-03-04T10:01:58.596Z,64.40
2018-03-04T10:04:26.893Z,64.40
2018-03-04T10:06:55.241Z,63.30
2018-03-04T10:09:23.533Z,61.70
2018-03-04T10:11:51.832Z,61.40
2018-03-04T10:14:20.191Z,60.70
2018-03-04T10:16:47.774Z,60.50
2018-03-04T10:19:16.093Z,59.60
2018-03-04T10:21:44.376Z,59.70
2018-03-04T10:24:12.720Z,59.00
2018-03-04T10:26:41.038Z,58.00
2018-03-04T10:29:09.372Z,57.60
2018-03-04T10:31:36.908Z,57.60
2018-03-04T10:34:04.465Z,57.30
2018-03-04T10:36:32.783Z,56.80
2018-03-04T10:39:01.110Z,56.60
2018-03-04T10:41:29.424Z,55.90
2018-03-04T10:43:57.744Z,55.10
2018-03-04T10:46:26.041Z,54.50
2018-03-04T10:48:54.357Z,54.20
2018-03-04T10:51:22.648Z,53.90
2018-03-04T10:53:50.965Z,53.50
2018-03-04T10:56:19.264Z,53.30
2018-03-04T10:58:47.580Z,53.30
2018-03-04T11:01:19.852Z,53.10
2018-03-04T11:03:47.402Z,53.10
2018-03-04T11:06:15.704Z,52.90
2018-03-04T11:08:44.025Z,52.50
2018-03-04T11:11:12.324Z,52.20
2018-03-04T11:13:40.644Z,52.10
2018-03-04T11:16:08.944Z,52.50
2018-03-04T11:18:37.276Z,52.50
2018-03-04T11:21:05.568Z,52.50
2018-03-04T11:23:33.096Z,52.50
2018-03-04T11:26:01.417Z,51.70
2018-03-04T11:28:29.763Z,51.40
2018-03-04T11:30:58.061Z,51.10
2018-03-04T11:33:26.361Z,51.00
2018-03-04T11:35:54.685Z,50.90
2018-03-04T11:38:22.989Z,50.60
2018-03-04T11:40:51.308Z,50.80
2018-03-04T11:43:19.607Z,50.90
2018-03-04T11:45:47.941Z,51.00
2018-03-04T11:48:16.242Z,50.90
2018-03-04T11:50:44.560Z,51.00
2018-03-04T11:53:12.856Z,50.80
2018-03-04T11:55:41.175Z,50.40
2018-03-04T11:58:09.468Z,50.10
2018-03-04T12:00:37.789Z,49.80
2018-03-04T12:03:06.081Z,49.30
2018-03-04T12:05:34.405Z,49.20
2018-03-04T12:08:01.941Z,49.20
2018-03-04T12:10:30.260Z,48.60
2018-03-04T12:12:58.552Z,48.30
2018-03-04T12:15:26.880Z,47.70
2018-03-04T12:17:55.197Z,47.70
2018-03-04T12:20:23.490Z,47.60
2018-03-04T12:22:51.820Z,47.30
2018-03-04T12:25:20.105Z,47.40
2018-03-04T12:27:48.420Z,46.90
2018-03-04T12:30:16.705Z,46.80
2018-03-04T12:32:45.017Z,46.80
2018-03-04T12:35:12.544Z,46.80
2018-03-04T12:37:40.864Z,46.60
2018-03-04T12:40:09.159Z,46.40
2018-03-04T12:42:37.475Z,46.30
2018-03-04T12:45:05.764Z,46.50
2018-03-04T12:47:34.145Z,46.70
2018-03-04T12:50:02.401Z,46.80
2018-03-04T12:52:30.764Z,46.80
2018-03-04T12:54:59.063Z,47.00
2018-03-04T12:57:27.442Z,47.30
2018-03-04T12:59:55.699Z,47.40
2018-03-04T13:02:24.034Z,47.60
2018-03-04T13:04:52.327Z,47.80
2018-03-04T13:07:20.672Z,48.30
2018-03-04T13:09:48.975Z,48.80
2018-03-04T13:12:17.296Z,49.90
2018-03-04T13:14:45.593Z,50.50
2018-03-04T13:17:13.900Z,50.80
2018-03-04T13:19:42.236Z,50.70
2018-03-04T13:22:10.536Z,50.90
2018-03-04T13:24:38.860Z,50.80
2018-03-04T13:27:07.169Z,50.90
2018-03-04T13:29:35.492Z,50.90
2018-03-04T13:32:03.024Z,50.90
2018-03-04T13:34:31.357Z,50.90
2018-03-04T13:36:59.653Z,51.10
2018-03-04T13:39:27.973Z,50.60
2018-03-04T13:41:56.271Z,51.30
2018-03-04T13:44:24.598Z,50.60
2018-03-04T13:46:52.938Z,50.30
2018-03-04T13:49:21.247Z,50.00
2018-03-04T13:51:49.544Z,49.80
2018-03-04T13:54:17.861Z,50.30
2018-03-04T13:56:46.157Z,50.80
2018-03-04T13:59:14.473Z,51.00
2018-03-04T14:01:42.766Z,51.10
2018-03-04T14:04:11.084Z,50.80
2018-03-04T14:06:39.377Z,50.90
2018-03-04T14:09:07.692Z,51.00
2018-03-04T14:11:36.001Z,51.10
2018-03-04T14:14:03.546Z,51.00
2018-03-04T14:16:31.841Z,51.40
2018-03-04T14:19:00.165Z,51.50
2018-03-04T14:21:28.467Z,51.60
2018-03-04T14:23:56.781Z,51.60
2018-03-04T14:26:24.305Z,51.50
2018-03-04T14:28:52.613Z,52.20
2018-03-04T14:31:20.913Z,52.50
2018-03-04T14:33:49.232Z,52.80
2018-03-04T14:36:17.524Z,53.10
2018-03-04T14:38:45.833Z,53.50
2018-03-04T14:41:14.129Z,54.20
2018-03-04T14:43:42.446Z,53.60
2018-03-04T14:46:10.753Z,53.90
2018-03-04T14:48:39.074Z,53.80
2018-03-04T14:51:07.371Z,53.90
2018-03-04T14:53:35.672Z,54.10
2018-03-04T14:56:03.225Z,54.10
2018-03-04T14:58:31.540Z,54.80
2018-03-04T15:00:59.861Z,55.00
2018-03-04T15:03:28.164Z,55.20
2018-03-04T15:05:56.482Z,55.40
2018-03-04T15:08:24.788Z,55.70
2018-03-04T15:10:53.117Z,55.90
2018-03-04T15:13:21.417Z,55.90
2018-03-04T15:15:49.956Z,56.10
2018-03-04T15:18:18.257Z,56.40
2018-03-04T15:20:46.576Z,56.70
2018-03-04T15:23:14.876Z,56.70
2018-03-04T15:25:43.204Z,56.90
2018-03-04T15:28:11.545Z,57.30
2018-03-04T15:30:39.857Z,58.30
2018-03-04T15:33:08.147Z,58.80
2018-03-04T15:35:36.456Z,59.10
2018-03-04T15:38:04.760Z,59.30
2018-03-04T15:40:33.076Z,59.50
2018-03-04T15:43:01.373Z,59.60
2018-03-04T15:45:29.689Z,60.10
2018-03-04T15:47:57.981Z,60.70
2018-03-04T15:50:26.301Z,61.30
2018-03-04T15:52:54.588Z,61.60
2018-03-04T15:55:22.906Z,61.70
2018-03-04T15:57:50.448Z,61.60
2018-03-04T16:00:18.768Z,61.90
2018-03-04T16:02:47.069Z,62.00
2018-03-04T16:05:15.389Z,61.80
2018-03-04T16:07:43.687Z,61.80
2018-03-04T16:10:12.005Z,62.00
2018-03-04T16:12:40.301Z,62.00
2018-03-04T16:15:08.623Z,62.10
2018-03-04T16:17:36.928Z,62.10
2018-03-04T16:20:05.249Z,63.30
2018-03-04T16:22:33.540Z,62.20
2018-03-04T16:25:01.853Z,62.30
2018-03-04T16:27:30.145Z,62.40
2018-03-04T16:29:58.469Z,62.20
2018-03-04T16:32:26.781Z,61.90
2018-03-04T16:34:55.077Z,61.90
2018-03-04T16:37:23.380Z,62.00
2018-03-04T16:39:51.669Z,61.90
2018-03-04T16:42:19.988Z,62.00
2018-03-04T16:44:48.280Z,62.10
2018-03-04T16:47:16.597Z,62.30
2018-03-04T16:49:44.906Z,62.40
2018-03-04T16:52:13.257Z,62.10
2018-03-04T16:54:41.544Z,62.20
2018-03-04T16:57:09.860Z,61.60
2018-03-04T16:59:38.161Z,62.30
2018-03-04T17:02:06.477Z,62.50
2018-03-04T17:04:34.789Z,62.40
2018-03-04T17:07:03.108Z,62.60
2018-03-04T17:09:31.420Z,62.80
2018-03-04T17:11:59.741Z,63.30
2018-03-04T17:14:28.041Z,63.50
2018-03-04T17:16:56.360Z,63.50
2018-03-04T17:19:24.667Z,63.70
2018-03-04T17:21:52.985Z,63.70
2018-03-04T17:24:21.325Z,63.80
2018-03-04T17:26:49.641Z,63.90
2018-03-04T17:29:17.940Z,64.20
2018-03-04T17:31:45.571Z,64.10
2018-03-04T17:34:13.900Z,64.50
2018-03-04T17:36:42.213Z,65.00
2018-03-04T17:39:10.564Z,65.00
2018-03-04T17:41:38.895Z,65.00
2018-03-04T17:44:07.334Z,65.20
2018-03-04T17:46:35.861Z,65.40
2018-03-04T17:49:04.199Z,65.90
2018-03-04T17:51:32.616Z,66.30
2018-03-04T17:54:00.908Z,66.60
2018-03-04T17:56:29.224Z,67.00
2018-03-04T17:58:57.529Z,67.20
2018-03-04T18:01:25.854Z,67.50
2018-03-04T18:03:54.157Z,67.80
2018-03-04T18:06:22.561Z,68.10
2018-03-04T18:08:50.870Z,68.40
2018-03-04T18:11:19.216Z,68.70
2018-03-04T18:13:47.517Z,69.10
2018-03-04T18:16:15.822Z,69.30
2018-03-04T18:18:44.160Z,69.50
2018-03-04T18:21:11.692Z,69.50
2018-03-04T18:23:40.024Z,70.40
2018-03-04T18:26:08.328Z,70.80
2018-03-04T18:28:36.654Z,71.10
2018-03-04T18:31:04.949Z,71.60
2018-03-04T18:33:33.269Z,71.80
2018-03-04T18:36:01.609Z,73.00
2018-03-04T18:38:29.932Z,72.60
2018-03-04T18:40:58.279Z,73.30
2018-03-04T18:43:26.641Z,73.30
2018-03-04T18:45:54.943Z,73.40
2018-03-04T18:48:23.269Z,73.70
2018-03-04T18:50:51.572Z,74.00
2018-03-04T18:53:19.884Z,74.40
2018-03-04T18:55:48.180Z,74.50
2018-03-04T18:58:16.505Z,75.20
2018-03-04T19:00:44.801Z,75.50
2018-03-04T19:03:13.129Z,75.80
2018-03-04T19:05:41.424Z,76.10
2018-03-04T19:08:09.760Z,76.40
2018-03-04T19:10:38.099Z,77.30
2018-03-04T19:13:06.418Z,77.90
2018-03-04T19:15:33.957Z,77.90
2018-03-04T19:18:02.288Z,78.80
2018-03-04T19:20:30.597Z,79.40
2018-03-04T19:22:58.909Z,79.70
2018-03-04T19:25:27.214Z,79.90
2018-03-04T19:27:55.545Z,79.90
2018-03-04T19:30:23.882Z,79.70
2018-03-04T19:32:51.428Z,79.70
2018-03-04T19:35:19.743Z,79.50
2018-03-04T19:37:48.072Z,79.40
2018-03-04T19:40:16.376Z,79.40
2018-03-04T19:42:44.693Z,79.40
2018-03-04T19:45:12.996Z,79.50
2018-03-04T19:47:41.340Z,79.90
2018-03-04T19:50:09.682Z,79.90
2018-03-04T19:52:37.995Z,80.30
2018-03-04T19:55:06.321Z,80.60
2018-03-04T19:57:34.627Z,81.00
2018-03-04T20:00:02.989Z,81.50
2018-03-04T20:02:31.286Z,82.20
2018-03-04T20:04:59.612Z,82.70
2018-03-04T20:07:27.905Z,82.90
2018-03-04T20:09:56.236Z,82.90
2018-03-04T20:12:24.532Z,83.10
2018-03-04T20:14:52.854Z,83.10
2018-03-04T20:17:21.149Z,83.30
2018-03-04T20:19:49.462Z,83.40
2018-03-04T20:22:17.774Z,83.70
2018-03-04T20:24:46.098Z,83.70
2018-03-04T20:27:14.396Z,84.00
2018-03-04T20:29:42.716Z,84.00
2018-03-04T20:32:11.012Z,84.10
2018-03-04T20:34:39.328Z,84.00
2018-03-04T20:37:07.656Z,84.30
2018-03-04T20:39:35.990Z,84.30
2018-03-04T20:42:04.301Z,84.00
2018-03-04T20:44:32.635Z,84.40
2018-03-04T20:47:00.949Z,84.20
2018-03-04T20:49:29.270Z,83.80
2018-03-04T20:51:57.564Z,84.00
2018-03-04T20:54:25.885Z,84.10
2018-03-04T20:56:54.189Z,84.20
2018-03-04T20:59:22.508Z,84.00
2018-03-04T21:01:50.816Z,83.90
2018-03-04T21:04:18.413Z,83.90
2018-03-04T21:06:46.736Z,84.10
2018-03-04T21:09:15.050Z,84.10
2018-03-04T21:11:43.405Z,83.80
2018-03-04T21:14:11.776Z,83.50
2018-03-04T21:16:40.116Z,83.60
2018-03-04T21:19:08.432Z,83.70
2018-03-04T21:21:36.730Z,83.70
2018-03-04T21:24:05.049Z,83.60
2018-03-04T21:26:33.353Z,83.40
2018-03-04T21:29:02.101Z,83.30
2018-03-04T21:31:30.434Z,83.30
2018-03-04T21:33:58.728Z,83.50
2018-03-04T21:36:27.052Z,83.40
2018-03-04T21:38:55.352Z,83.20
2018-03-04T21:41:27.225Z,83.10
2018-03-04T21:43:55.526Z,82.90
2018-03-04T21:46:23.841Z,82.70
2018-03-04T21:48:52.129Z,82.60
2018-03-04T21:51:19.688Z,82.60
2018-03-04T21:53:47.979Z,82.70
2018-03-04T21:56:16.285Z,82.60
2018-03-04T21:58:44.578Z,82.50
2018-03-04T22:01:12.893Z,82.20
2018-03-04T22:03:41.180Z,82.20
2018-03-04T22:06:09.500Z,82.10
2018-03-04T22:08:37.793Z,82.20
2018-03-04T22:11:06.112Z,83.00
2018-03-04T22:13:34.584Z,82.20
2018-03-04T22:16:02.908Z,82.20
2018-03-04T22:18:30.441Z,82.10
2018-03-04T22:20:58.755Z,82.20
2018-03-04T22:23:26.293Z,82.20
2018-03-04T22:25:54.604Z,82.20
2018-03-04T22:28:22.908Z,82.10
2018-03-04T22:30:51.223Z,82.10
2018-03-04T22:33:19.524Z,82.20
2018-03-04T22:35:47.847Z,82.10
2018-03-04T22:38:16.137Z,82.20
2018-03-04T22:40:44.449Z,82.10
2018-03-04T22:43:12.750Z,82.00
2018-03-04T22:45:41.075Z,82.10
2018-03-04T22:48:09.380Z,82.00
2018-03-04T22:50:37.694Z,81.80
2018-03-04T22:53:05.985Z,81.80
2018-03-04T22:55:34.305Z,81.80
2018-03-04T22:58:02.602Z,82.00
2018-03-04T23:00:30.915Z,82.10
2018-03-04T23:02:59.212Z,82.20
2018-03-04T23:05:27.536Z,82.30
2018-03-04T23:07:55.864Z,82.50
2018-03-04T23:10:24.160Z,82.60
2018-03-04T23:12:52.488Z,82.90
2018-03-04T23:15:20.004Z,82.90
2018-03-04T23:17:48.332Z,83.40
2018-03-04T23:20:16.641Z,83.50
2018-03-04T23:22:44.952Z,83.60
2018-03-04T23:25:13.244Z,83.70
2018-03-04T23:27:41.565Z,84.10
2018-03-04T23:30:09.853Z,84.20
2018-03-04T23:32:38.208Z,84.30
2018-03-04T23:35:06.496Z,84.20
2018-03-04T23:37:34.087Z,84.20
2018-03-04T23:40:02.381Z,85.10
2018-03-04T23:42:30.696Z,83.90
2018-03-04T23:44:58.996Z,83.60
2018-03-04T23:47:27.300Z,83.40
2018-03-04T23:49:55.593Z,83.30
2018-03-04T23:52:23.959Z,84.10
2018-03-04T23:54:52.219Z,83.20
2018-03-04T23:57:19.760Z,83.20
2018-03-04T23:59:48.052Z,83.00
